This is the latest recevied weather packets stored in our database for station/object TG8AKV-17. If no packets are shown the sender has not sent any weather packets the latest 10 day(s).
| Time | Temp. | Humidity | Pressure | Rain* | Wind** | Luminosity | Snow |
|---|---|---|---|---|---|---|---|
| 1778123825 | 13.89° C | 94% | 1018 hPa | 0 mm | - | - | - |
| 1778123224 | 13.89° C | 95% | 1018 hPa | 0 mm | - | - | - |
| 1778122623 | 13.89° C | 95% | 1018 hPa | 0 mm | - | - | - |
| 1778122023 | 13.89° C | 95% | 1018 hPa | 0 mm | - | - | - |
| 1778121422 | 13.89° C | 95% | 1018 hPa | 0 mm | - | - | - |
| 1778120821 | 13.89° C | 95% | 1017 hPa | 0 mm | - | - | - |
| 1778120221 | 13.89° C | 95% | 1017 hPa | 0 mm | - | - | - |
| 1778119620 | 14.44° C | 95% | 1017 hPa | 0 mm | - | - | - |
| 1778119019 | 14.44° C | 95% | 1017 hPa | 0 mm | - | - | - |
| 1778118419 | 14.44° C | 95% | 1017 hPa | 0 mm | - | - | - |
| 1778117818 | 14.44° C | 95% | 1017 hPa | 0 mm | - | - | - |
| 1778117218 | 14.44° C | 95% | 1016 hPa | 0 mm | - | - | - |
| 1778116617 | 14.44° C | 95% | 1016 hPa | 0 mm | - | - | - |
| 1778116017 | 14.44° C | 95% | 1016 hPa | 0 mm | - | - | - |
| 1778115416 | 14.44° C | 95% | 1016 hPa | 0 mm | - | - | - |
| 1778114816 | 14.44° C | 95% | 1016 hPa | 0 mm | - | - | - |
| 1778114215 | 18.33° C | 84% | 1016 hPa | 0 mm | - | - | - |
| 1778113614 | 18.33° C | 84% | 1015 hPa | 0.51 mm | - | - | - |
| 1778113013 | 17.78° C | 85% | 1015 hPa | 0.76 mm | - | - | - |
| 1778112413 | 17.22° C | 88% | 1015 hPa | 0.51 mm | - | - | - |
| 1778111812 | 16.11° C | 94% | 1015 hPa | 0.51 mm | - | - | - |
| 1778111212 | 16.11° C | 93% | 1015 hPa | 0.51 mm | - | - | - |
| 1778110611 | 16.11° C | 92% | 1015 hPa | 0.76 mm | - | - | - |
| 1778110010 | 16.11° C | 91% | 1014 hPa | 0.76 mm | - | - | - |
| 1778109410 | 16.11° C | 89% | 1014 hPa | 0.51 mm | - | - | - |
* Rain latest hour (hover to see other rain measurements)
** Current wind speed in m/s (hover to see current wind gust speed)